Terminal Aerodrome Forecast
Issued by NWS

Home | Current Version | Previous Version | Text Only | Print | Product List | Glossary Off
Versions: 1 2 3 4 5 6 7 8 9 10 11 12 13 14 15

000
FTUS43 KMPX 051140
TAFRNH
TAF
KRNH 051140Z 0512/0612 17005KT P6SM SCT250
     FM051600 18013G22KT P6SM BKN250
     FM060100 16006KT P6SM VCSH SCT050 BKN120
     FM060400 15008KT 6SM -SHRA VCTS BKN050CB OVC100
      TEMPO 0605/0608 2SM SHRA OVC030=

USA.gov is the U.S. government's official web portal to all federal, state and local government web resources and services.